Time;durP1;ratioP1;P1;durP2;ratioP2;P2;SDS_P1;SDS_P2;PMS_P1;PMS_P2;Temp;Humidity;BMP_temperature;BMP_pressure;BME280_temperature;BME280_humidity;BME280_pressure;Samples;Min_cycle;Max_cycle;Signal;HPM_P1;HPM_P2
2022/01/26 00:00:56;;;;;;;33.23;16.10;;;;;;;;;;5080992;28;20263;-90
2022/01/26 00:06:17;;;;;;;28.50;16.83;;;;;;;;;;5080879;28;20225;-89
2022/01/26 00:08:48;;;;;;;32.27;18.03;;;;;;;;;;5081727;28;20197;-90
2022/01/26 00:11:16;;;;;;;36.03;19.90;;;;;;;;;;5081384;28;20224;-89
2022/01/26 00:13:45;;;;;;;21.80;12.23;;;;;;;;;;5080701;28;20225;-90
2022/01/26 00:16:22;;;;;;;15.00;6.77;;;;;;;;;;5080472;28;20209;-90
2022/01/26 00:18:54;;;;;;;28.23;18.10;;;;;;;;;;5080092;28;20206;-89
2022/01/26 00:21:30;;;;;;;30.67;17.73;;;;;;;;;;5080698;28;20250;-89
2022/01/26 00:27:08;;;;;;;4.80;4.43;;;;;;;;;;5081520;28;20223;-90
2022/01/26 00:29:40;;;;;;;4.87;3.40;;;;;;;;;;5080893;28;20205;-90
2022/01/26 00:40:40;;;;;;;35.40;20.87;;;;;;;;;;5067383;28;20205;-90
2022/01/26 00:43:15;;;;;;;43.60;23.17;;;;;;;;;;5080783;28;20198;-90
2022/01/26 00:45:43;;;;;;;19.33;11.47;;;;;;;;;;5080367;28;20197;-89
2022/01/26 00:48:19;;;;;;;31.93;18.27;;;;;;;;;;5080419;28;20209;-90
2022/01/26 00:50:51;;;;;;;30.47;17.07;;;;;;;;;;5080349;28;20205;-90
2022/01/26 00:53:22;;;;;;;36.13;22.10;;;;;;;;;;5081092;28;20229;-90
2022/01/26 00:55:52;;;;;;;34.40;19.30;;;;;;;;;;5080613;28;20209;-89
2022/01/26 00:58:21;;;;;;;30.80;19.40;;;;;;;;;;5080269;28;20216;-89
2022/01/26 01:00:50;;;;;;;30.10;19.40;;;;;;;;;;5080870;28;20217;-90
2022/01/26 01:03:19;;;;;;;36.00;25.30;;;;;;;;;;5080908;28;20221;-89
2022/01/26 01:05:54;;;;;;;34.00;21.87;;;;;;;;;;5080059;28;20209;-90
2022/01/26 01:08:24;;;;;;;30.50;18.73;;;;;;;;;;5080116;28;20209;-90
2022/01/26 01:10:55;;;;;;;14.50;11.97;;;;;;;;;;5079666;28;20213;-90
2022/01/26 01:13:32;;;;;;;38.57;22.17;;;;;;;;;;5080306;28;20226;-90
2022/01/26 01:16:01;;;;;;;44.07;28.67;;;;;;;;;;5080440;28;20232;-89
2022/01/26 01:18:38;;;;;;;40.13;24.70;;;;;;;;;;5079702;28;20236;-90
2022/01/26 01:22:00;;;;;;;43.97;28.07;;;;;;;;;;5080051;28;20229;-90
2022/01/26 01:24:27;;;;;;;42.57;28.27;;;;;;;;;;5079479;28;20201;-89
2022/01/26 01:27:28;;;;;;;40.73;26.00;;;;;;;;;;5080356;28;20216;-89
2022/01/26 01:30:04;;;;;;;32.07;18.53;;;;;;;;;;5080385;28;20259;-90
2022/01/26 01:32:38;;;;;;;41.43;26.43;;;;;;;;;;5080152;28;20249;-90
2022/01/26 01:35:10;;;;;;;38.57;24.27;;;;;;;;;;5079575;28;20208;-89
2022/01/26 01:37:38;;;;;;;42.43;27.60;;;;;;;;;;5080101;28;20201;-89
2022/01/26 01:40:07;;;;;;;39.80;27.77;;;;;;;;;;5081059;28;20231;-90
2022/01/26 01:42:37;;;;;;;44.53;31.47;;;;;;;;;;5080562;28;20244;-89
2022/01/26 01:45:06;;;;;;;31.27;17.60;;;;;;;;;;5081805;28;20198;-89
2022/01/26 01:47:35;;;;;;;38.63;22.93;;;;;;;;;;5081221;28;20210;-89
2022/01/26 01:50:09;;;;;;;40.47;23.40;;;;;;;;;;5080706;28;20202;-90
2022/01/26 01:52:37;;;;;;;43.57;26.57;;;;;;;;;;5079640;28;20198;-90
2022/01/26 01:55:06;;;;;;;34.63;18.60;;;;;;;;;;5079922;28;20222;-89
2022/01/26 01:57:35;;;;;;;48.43;28.73;;;;;;;;;;5082107;28;20205;-89
2022/01/26 02:00:06;;;;;;;43.90;28.33;;;;;;;;;;5084050;28;20263;-90
2022/01/26 02:02:35;;;;;;;35.00;18.33;;;;;;;;;;5084515;28;20251;-90
2022/01/26 02:05:03;;;;;;;42.37;29.07;;;;;;;;;;5083699;28;20211;-90
2022/01/26 02:07:32;;;;;;;34.47;21.23;;;;;;;;;;5083601;28;20193;-89
2022/01/26 02:10:02;;;;;;;47.00;26.10;;;;;;;;;;5084251;28;20209;-89
2022/01/26 02:12:32;;;;;;;38.40;23.07;;;;;;;;;;5084155;28;20259;-90
2022/01/26 02:15:08;;;;;;;45.47;25.53;;;;;;;;;;5084136;28;20251;-90
2022/01/26 02:18:02;;;;;;;44.20;25.30;;;;;;;;;;5084242;28;20198;-90
2022/01/26 02:20:50;;;;;;;44.33;30.27;;;;;;;;;;5083771;28;20294;-90
2022/01/26 02:56:50;;;;;;;55.63;35.03;;;;;;;;;;5083004;28;20200;-89
2022/01/26 02:59:38;;;;;;;54.60;30.40;;;;;;;;;;5083129;28;20224;-90
2022/01/26 03:02:09;;;;;;;63.37;38.90;;;;;;;;;;5082717;28;20190;-90
2022/01/26 03:04:42;;;;;;;61.50;38.23;;;;;;;;;;5083263;28;20231;-90
2022/01/26 03:07:16;;;;;;;59.83;35.77;;;;;;;;;;5075846;28;20209;-89
2022/01/26 03:09:53;;;;;;;39.00;20.73;;;;;;;;;;5068561;28;20256;-89
2022/01/26 03:12:30;;;;;;;64.47;35.57;;;;;;;;;;5079709;28;20205;-90
2022/01/26 03:15:08;;;;;;;14.73;11.47;;;;;;;;;;5078831;28;20301;-90
2022/01/26 03:17:55;;;;;;;57.50;32.97;;;;;;;;;;5063083;28;20187;-89
2022/01/26 03:20:28;;;;;;;62.70;37.87;;;;;;;;;;5063049;28;20274;-90
2022/01/26 03:28:41;;;;;;;50.93;28.97;;;;;;;;;;5063058;28;20202;-90
2022/01/26 03:31:43;;;;;;;52.17;29.70;;;;;;;;;;5062723;28;20206;-90
2022/01/26 03:34:11;;;;;;;38.20;20.57;;;;;;;;;;5062310;28;20247;-90
2022/01/26 03:36:47;;;;;;;6.73;6.13;;;;;;;;;;5063288;28;20233;-90
2022/01/26 03:39:18;;;;;;;26.20;13.87;;;;;;;;;;5062929;28;20221;-90
2022/01/26 03:41:52;;;;;;;6.67;4.93;;;;;;;;;;5077101;28;20201;-90
2022/01/26 03:44:21;;;;;;;4.67;4.40;;;;;;;;;;5083323;28;20231;-90
2022/01/26 03:46:51;;;;;;;16.57;10.60;;;;;;;;;;5083225;28;20213;-90
2022/01/26 03:49:19;;;;;;;11.53;10.47;;;;;;;;;;5083088;28;20220;-90
2022/01/26 03:51:48;;;;;;;4.67;4.03;;;;;;;;;;5083416;28;20217;-89
2022/01/26 03:54:19;;;;;;;5.67;3.40;;;;;;;;;;5084110;28;20240;-89
2022/01/26 03:56:49;;;;;;;54.13;31.23;;;;;;;;;;5083736;28;20215;-90
2022/01/26 03:59:17;;;;;;;64.47;39.63;;;;;;;;;;5083434;28;20197;-89
2022/01/26 04:01:46;;;;;;;67.20;37.40;;;;;;;;;;5083016;28;20193;-89
2022/01/26 04:04:15;;;;;;;12.37;8.83;;;;;;;;;;5082373;28;20271;-89
2022/01/26 04:06:43;;;;;;;56.37;30.93;;;;;;;;;;5082849;28;20307;-89
2022/01/26 04:09:14;;;;;;;22.83;13.53;;;;;;;;;;5082786;28;20197;-89
2022/01/26 04:11:46;;;;;;;63.40;37.23;;;;;;;;;;5083088;28;20209;-89
2022/01/26 04:14:19;;;;;;;71.00;42.80;;;;;;;;;;5082957;28;20202;-89
2022/01/26 04:16:48;;;;;;;69.30;36.70;;;;;;;;;;5062771;28;20207;-89
2022/01/26 04:19:17;;;;;;;76.47;44.00;;;;;;;;;;5062451;28;20256;-90
2022/01/26 04:22:05;;;;;;;77.67;41.93;;;;;;;;;;5060998;28;20241;-89
2022/01/26 04:24:38;;;;;;;67.73;37.53;;;;;;;;;;5061797;28;20214;-89
2022/01/26 04:27:16;;;;;;;30.53;13.60;;;;;;;;;;5060920;28;20202;-89
2022/01/26 04:29:47;;;;;;;25.30;15.10;;;;;;;;;;5061674;28;20232;-89
2022/01/26 04:32:16;;;;;;;23.20;12.37;;;;;;;;;;5061288;28;20224;-89
2022/01/26 04:34:47;;;;;;;33.87;17.97;;;;;;;;;;5062576;28;20202;-89
2022/01/26 04:37:26;;;;;;;48.17;25.53;;;;;;;;;;5062103;28;20214;-90
2022/01/26 04:39:59;;;;;;;50.20;28.47;;;;;;;;;;5062103;28;20206;-89
2022/01/26 04:42:36;;;;;;;23.20;13.43;;;;;;;;;;5062327;28;20229;-89
2022/01/26 04:45:09;;;;;;;1.27;1.27;;;;;;;;;;5062223;28;20203;-89
2022/01/26 04:47:37;;;;;;;10.10;9.20;;;;;;;;;;5061914;28;20198;-89
2022/01/26 04:50:07;;;;;;;20.47;10.80;;;;;;;;;;5061232;28;20260;-90
2022/01/26 04:52:36;;;;;;;38.07;23.03;;;;;;;;;;5061525;28;20196;-89
2022/01/26 04:55:05;;;;;;;15.00;9.20;;;;;;;;;;5061766;28;20252;-90
2022/01/26 04:57:33;;;;;;;33.90;21.83;;;;;;;;;;5061897;28;20210;-90
2022/01/26 05:00:02;;;;;;;27.67;12.97;;;;;;;;;;5061329;28;20210;-89
2022/01/26 05:02:35;;;;;;;31.37;18.47;;;;;;;;;;5061739;28;20226;-89
2022/01/26 05:05:04;;;;;;;21.20;12.60;;;;;;;;;;5061426;28;20285;-89
2022/01/26 05:07:33;;;;;;;35.97;19.93;;;;;;;;;;5060721;28;20210;-89
2022/01/26 05:10:02;;;;;;;33.60;18.90;;;;;;;;;;5060090;28;20206;-89
2022/01/26 05:12:32;;;;;;;23.13;11.60;;;;;;;;;;5060489;28;20213;-90
2022/01/26 05:15:01;;;;;;;24.27;15.80;;;;;;;;;;5064437;28;20221;-89
2022/01/26 05:17:29;;;;;;;17.17;11.90;;;;;;;;;;5079864;28;20198;-89
2022/01/26 05:20:00;;;;;;;23.53;14.73;;;;;;;;;;5080118;28;20210;-89
2022/01/26 05:22:31;;;;;;;11.40;6.57;;;;;;;;;;5080380;28;20257;-90
2022/01/26 05:25:00;;;;;;;5.90;5.30;;;;;;;;;;5079923;28;20197;-89
2022/01/26 05:27:28;;;;;;;6.93;6.20;;;;;;;;;;5078875;28;20201;-90
2022/01/26 05:29:56;;;;;;;22.63;14.07;;;;;;;;;;5080013;28;20210;-90
2022/01/26 05:32:25;;;;;;;21.87;11.03;;;;;;;;;;5078822;28;20251;-90
2022/01/26 05:34:53;;;;;;;18.73;13.77;;;;;;;;;;5079657;28;20210;-89
2022/01/26 05:37:24;;;;;;;31.23;17.03;;;;;;;;;;5079189;28;20224;-90
2022/01/26 05:39:53;;;;;;;17.23;11.03;;;;;;;;;;5080001;28;20194;-90
2022/01/26 05:42:22;;;;;;;29.37;14.30;;;;;;;;;;5079848;28;20232;-87
2022/01/26 05:44:52;;;;;;;21.37;11.67;;;;;;;;;;5079974;28;20271;-90
2022/01/26 05:47:21;;;;;;;28.60;15.87;;;;;;;;;;5079535;28;20182;-90
2022/01/26 05:49:49;;;;;;;13.97;10.97;;;;;;;;;;5078674;28;20206;-89
2022/01/26 05:52:18;;;;;;;23.80;10.83;;;;;;;;;;5079327;28;20205;-90
2022/01/26 05:54:53;;;;;;;25.97;17.40;;;;;;;;;;5079510;28;20194;-90
2022/01/26 05:57:21;;;;;;;39.40;20.53;;;;;;;;;;5078812;28;20222;-90
2022/01/26 05:59:52;;;;;;;23.90;13.90;;;;;;;;;;5078741;28;20205;-89
2022/01/26 06:02:21;;;;;;;40.23;27.60;;;;;;;;;;5078955;28;20213;-89
2022/01/26 06:04:49;;;;;;;13.77;8.00;;;;;;;;;;5078992;28;20217;-90
2022/01/26 06:07:18;;;;;;;32.27;22.13;;;;;;;;;;5078734;28;20200;-90
2022/01/26 06:09:46;;;;;;;21.07;13.67;;;;;;;;;;5077485;28;20251;-89
2022/01/26 06:12:16;;;;;;;17.67;11.87;;;;;;;;;;5078461;28;20241;-89
2022/01/26 06:14:45;;;;;;;37.93;20.90;;;;;;;;;;5079353;28;20194;-89
2022/01/26 06:17:13;;;;;;;27.63;15.80;;;;;;;;;;5080303;28;20225;-90
2022/01/26 06:19:42;;;;;;;32.13;17.23;;;;;;;;;;5080035;28;20210;-89
2022/01/26 06:22:10;;;;;;;17.03;9.73;;;;;;;;;;5079405;28;20272;-90
2022/01/26 06:24:38;;;;;;;23.83;13.23;;;;;;;;;;5081028;28;20244;-89
2022/01/26 06:27:12;;;;;;;41.47;24.47;;;;;;;;;;5082261;28;20205;-90
2022/01/26 06:29:42;;;;;;;33.13;21.13;;;;;;;;;;5086105;28;20201;-89
2022/01/26 06:32:12;;;;;;;51.13;23.23;;;;;;;;;;5086532;28;20201;-89
2022/01/26 06:34:40;;;;;;;45.10;27.27;;;;;;;;;;5085223;28;20213;-88
2022/01/26 06:37:12;;;;;;;40.93;23.60;;;;;;;;;;5085364;28;20254;-89
2022/01/26 06:39:42;;;;;;;24.37;17.87;;;;;;;;;;5084275;28;20205;-89
2022/01/26 06:42:14;;;;;;;24.20;14.97;;;;;;;;;;5084091;28;20205;-89
2022/01/26 06:44:54;;;;;;;23.37;14.43;;;;;;;;;;5086241;28;20205;-89
2022/01/26 06:47:45;;;;;;;30.00;18.83;;;;;;;;;;5089433;28;20204;-89
2022/01/26 06:50:14;;;;;;;13.57;9.33;;;;;;;;;;5087215;28;20209;-89
2022/01/26 06:52:44;;;;;;;16.40;10.30;;;;;;;;;;5087804;28;20201;-90
2022/01/26 06:55:14;;;;;;;35.00;19.23;;;;;;;;;;5089439;28;20188;-90
2022/01/26 06:57:46;;;;;;;18.63;11.67;;;;;;;;;;5089078;28;20221;-91
2022/01/26 07:00:16;;;;;;;40.43;18.90;;;;;;;;;;5089553;28;20216;-90
2022/01/26 07:02:48;;;;;;;11.30;8.43;;;;;;;;;;5091597;28;20218;-90
2022/01/26 07:05:22;;;;;;;32.07;18.50;;;;;;;;;;5091431;28;20204;-91
2022/01/26 07:07:53;;;;;;;25.47;14.10;;;;;;;;;;5085146;28;20206;-90
2022/01/26 07:10:22;;;;;;;18.37;11.93;;;;;;;;;;5080948;28;20201;-90
2022/01/26 07:12:50;;;;;;;36.77;17.40;;;;;;;;;;5081604;28;20210;-90
2022/01/26 07:23:38;;;;;;;42.70;25.87;;;;;;;;;;5085820;28;20247;-90
2022/01/26 07:26:06;;;;;;;21.57;15.40;;;;;;;;;;5092501;28;20198;-90
2022/01/26 07:28:38;;;;;;;24.63;15.43;;;;;;;;;;5093271;28;20242;-89
2022/01/26 07:31:11;;;;;;;23.50;12.60;;;;;;;;;;5094363;28;20229;-89
2022/01/26 07:33:54;;;;;;;15.30;10.97;;;;;;;;;;5094796;28;20205;-89
2022/01/26 07:36:23;;;;;;;25.33;15.57;;;;;;;;;;5094588;28;20271;-90
2022/01/26 07:38:54;;;;;;;35.63;18.73;;;;;;;;;;5094478;28;20201;-90
2022/01/26 07:41:23;;;;;;;31.13;15.83;;;;;;;;;;5090634;28;20201;-88
2022/01/26 07:43:55;;;;;;;14.93;9.13;;;;;;;;;;5092112;28;20208;-91
2022/01/26 07:46:31;;;;;;;31.17;15.43;;;;;;;;;;5090209;28;20221;-90
2022/01/26 07:49:07;;;;;;;46.47;26.43;;;;;;;;;;5087923;28;20190;-89
2022/01/26 07:51:36;;;;;;;37.23;21.33;;;;;;;;;;5076953;28;20199;-91
2022/01/26 07:54:09;;;;;;;16.23;11.93;;;;;;;;;;5077040;28;20239;-90
2022/01/26 07:56:42;;;;;;;30.23;15.13;;;;;;;;;;5080848;28;20289;-93
2022/01/26 07:59:11;;;;;;;20.23;10.83;;;;;;;;;;5074258;28;20215;-91
2022/01/26 08:01:40;;;;;;;21.07;12.53;;;;;;;;;;5070004;28;20214;-88
2022/01/26 08:04:09;;;;;;;14.80;11.07;;;;;;;;;;5081345;28;20243;-88
2022/01/26 08:06:40;;;;;;;40.57;19.43;;;;;;;;;;5082021;28;20202;-87
2022/01/26 08:09:08;;;;;;;10.57;8.90;;;;;;;;;;5063601;28;20209;-88
2022/01/26 08:11:37;;;;;;;30.77;18.10;;;;;;;;;;5087814;28;20234;-88
2022/01/26 08:14:05;;;;;;;18.93;11.67;;;;;;;;;;5083956;28;20206;-88
2022/01/26 08:16:34;;;;;;;15.03;9.40;;;;;;;;;;5080697;28;20201;-88
2022/01/26 08:19:05;;;;;;;35.07;16.93;;;;;;;;;;5071867;28;20209;-88
2022/01/26 08:21:34;;;;;;;13.03;8.00;;;;;;;;;;5076168;28;20310;-88
2022/01/26 08:24:12;;;;;;;41.47;26.17;;;;;;;;;;5072476;28;20206;-89
2022/01/26 08:26:43;;;;;;;30.87;16.67;;;;;;;;;;5075078;28;20225;-88
2022/01/26 08:29:16;;;;;;;22.90;10.83;;;;;;;;;;5075432;28;20338;-89
2022/01/26 08:31:45;;;;;;;21.63;12.17;;;;;;;;;;5069160;28;20206;-89
2022/01/26 08:34:17;;;;;;;23.40;14.43;;;;;;;;;;5078961;28;20324;-90
2022/01/26 08:36:46;;;;;;;14.77;11.20;;;;;;;;;;5081343;28;20205;-91
2022/01/26 08:39:14;;;;;;;34.20;18.93;;;;;;;;;;5075472;28;20248;-88
2022/01/26 08:41:44;;;;;;;28.63;16.40;;;;;;;;;;5073225;28;20240;-91
2022/01/26 08:44:13;;;;;;;16.23;11.33;;;;;;;;;;5070666;28;20212;-89
2022/01/26 08:46:42;;;;;;;21.50;11.07;;;;;;;;;;5069630;28;20216;-87
2022/01/26 08:49:10;;;;;;;33.27;17.63;;;;;;;;;;5076563;28;20267;-88
2022/01/26 08:51:40;;;;;;;14.20;10.33;;;;;;;;;;5066868;28;20214;-86
2022/01/26 08:54:10;;;;;;;18.67;12.40;;;;;;;;;;5065374;28;20206;-89
2022/01/26 08:56:39;;;;;;;18.43;10.97;;;;;;;;;;5067033;28;20351;-89
2022/01/26 08:59:07;;;;;;;28.00;18.03;;;;;;;;;;5064287;28;20226;-88
2022/01/26 09:01:38;;;;;;;29.63;21.17;;;;;;;;;;5072151;28;20229;-88
2022/01/26 09:04:07;;;;;;;21.47;13.97;;;;;;;;;;5068621;28;20222;-89
2022/01/26 09:06:39;;;;;;;26.67;14.70;;;;;;;;;;5374574;22;20222;-87
2022/01/26 09:09:09;;;;;;;13.37;9.53;;;;;;;;;;5034122;28;20184;-86
2022/01/26 09:11:40;;;;;;;34.17;21.63;;;;;;;;;;5033614;28;20211;-86
2022/01/26 09:14:10;;;;;;;15.53;7.50;;;;;;;;;;5038539;28;20269;-87
2022/01/26 09:16:39;;;;;;;8.07;5.63;;;;;;;;;;5044841;28;20206;-87
2022/01/26 09:19:13;;;;;;;13.57;8.97;;;;;;;;;;5041933;28;20305;-86
2022/01/26 09:21:42;;;;;;;5.67;5.17;;;;;;;;;;5037187;28;20230;-87
2022/01/26 09:24:19;;;;;;;21.17;13.87;;;;;;;;;;5044744;28;20183;-87
2022/01/26 09:26:47;;;;;;;15.57;9.33;;;;;;;;;;5035945;28;20202;-88
2022/01/26 09:29:16;;;;;;;25.47;15.50;;;;;;;;;;5028277;28;20286;-86
2022/01/26 09:31:47;;;;;;;15.97;9.07;;;;;;;;;;5032834;28;20208;-87
2022/01/26 09:34:17;;;;;;;8.90;5.63;;;;;;;;;;5039581;28;20226;-87
2022/01/26 09:36:46;;;;;;;11.50;7.73;;;;;;;;;;5033882;28;20210;-87
2022/01/26 09:39:16;;;;;;;3.93;3.53;;;;;;;;;;5037984;28;20235;-91
2022/01/26 09:41:46;;;;;;;9.40;6.93;;;;;;;;;;5037273;28;20290;-86
2022/01/26 09:44:15;;;;;;;5.23;4.27;;;;;;;;;;5036802;28;20207;-86
2022/01/26 09:46:44;;;;;;;17.57;10.27;;;;;;;;;;5029042;28;20219;-87
2022/01/26 09:49:16;;;;;;;8.70;5.50;;;;;;;;;;5033112;28;20207;-87
2022/01/26 09:51:49;;;;;;;14.87;8.43;;;;;;;;;;5038594;28;20226;-88
2022/01/26 09:54:22;;;;;;;9.07;6.20;;;;;;;;;;5024515;28;20208;-87
2022/01/26 09:57:09;;;;;;;4.30;4.03;;;;;;;;;;5032897;28;20266;-88
2022/01/26 09:59:39;;;;;;;7.10;5.13;;;;;;;;;;5037732;28;20219;-87
2022/01/26 10:02:24;;;;;;;12.00;7.00;;;;;;;;;;5029953;28;20231;-88
2022/01/26 10:04:59;;;;;;;11.47;8.93;;;;;;;;;;5032599;28;20233;-88
2022/01/26 10:07:41;;;;;;;14.10;8.63;;;;;;;;;;5028603;28;20230;-87
2022/01/26 10:15:26;;;;;;;5.43;4.87;;;;;;;;;;5039242;28;20219;-87
2022/01/26 10:16:41;;;;;;;21.37;13.30;;;;;;;;;;5115433;22;20246;-87
2022/01/26 10:19:10;;;;;;;12.00;9.63;;;;;;;;;;5024177;28;20239;-87
2022/01/26 10:21:50;;;;;;;21.87;14.80;;;;;;;;;;5040267;28;20199;-86
2022/01/26 10:24:20;;;;;;;22.27;13.33;;;;;;;;;;5039573;28;20223;-88
2022/01/26 10:26:57;;;;;;;16.27;10.67;;;;;;;;;;5039817;28;20201;-87
2022/01/26 10:29:27;;;;;;;16.40;8.23;;;;;;;;;;5015534;28;20326;-86
2022/01/26 10:31:56;;;;;;;9.00;6.63;;;;;;;;;;5010322;28;20258;-86
2022/01/26 10:34:25;;;;;;;11.70;7.90;;;;;;;;;;5013824;28;20224;-87
2022/01/26 10:36:58;;;;;;;10.73;7.20;;;;;;;;;;5031379;28;20222;-88
2022/01/26 10:39:29;;;;;;;19.57;12.30;;;;;;;;;;5030625;28;20221;-87
2022/01/26 10:42:06;;;;;;;15.87;11.07;;;;;;;;;;5036294;28;20256;-88
2022/01/26 10:44:50;;;;;;;21.10;12.10;;;;;;;;;;5036817;28;20195;-87
2022/01/26 10:47:27;;;;;;;12.20;6.60;;;;;;;;;;5029071;28;20204;-87
2022/01/26 10:50:08;;;;;;;9.13;7.87;;;;;;;;;;5028310;28;20216;-87
2022/01/26 10:52:38;;;;;;;19.53;12.17;;;;;;;;;;5028846;28;20213;-87
2022/01/26 10:55:12;;;;;;;5.90;5.30;;;;;;;;;;5032579;28;20212;-89
2022/01/26 10:57:44;;;;;;;26.17;16.80;;;;;;;;;;5039911;28;20205;-87
2022/01/26 11:00:14;;;;;;;13.37;8.40;;;;;;;;;;5020074;28;20188;-87
2022/01/26 11:02:52;;;;;;;5.67;4.90;;;;;;;;;;5019830;28;20229;-88
2022/01/26 11:05:23;;;;;;;13.87;10.70;;;;;;;;;;5017229;28;20215;-87
2022/01/26 11:07:52;;;;;;;14.73;7.13;;;;;;;;;;5016862;28;20231;-87
2022/01/26 11:10:23;;;;;;;22.50;15.97;;;;;;;;;;5011074;28;20199;-87
2022/01/26 11:12:53;;;;;;;9.70;6.40;;;;;;;;;;5015436;28;20226;-86
2022/01/26 11:15:24;;;;;;;19.87;11.07;;;;;;;;;;5011085;28;20237;-89
2022/01/26 11:17:53;;;;;;;7.10;5.77;;;;;;;;;;5016599;28;20205;-89
2022/01/26 11:20:31;;;;;;;14.97;9.37;;;;;;;;;;5011686;28;20242;-90
2022/01/26 11:23:00;;;;;;;4.93;4.43;;;;;;;;;;5023151;28;20239;-87
2022/01/26 11:25:30;;;;;;;18.37;13.90;;;;;;;;;;5027489;28;20212;-87
2022/01/26 11:28:00;;;;;;;10.53;7.80;;;;;;;;;;5025291;28;20292;-87
2022/01/26 11:30:32;;;;;;;12.67;7.33;;;;;;;;;;5022519;28;20210;-89
2022/01/26 11:33:02;;;;;;;21.10;11.53;;;;;;;;;;5005604;28;20275;-88
2022/01/26 11:35:31;;;;;;;8.57;5.03;;;;;;;;;;5015720;28;20271;-87
2022/01/26 11:38:06;;;;;;;14.70;7.20;;;;;;;;;;5019869;28;20211;-89
2022/01/26 11:46:33;;;;;;;28.13;16.03;;;;;;;;;;5016727;28;20217;-91
2022/01/26 11:49:02;;;;;;;16.80;10.20;;;;;;;;;;5015917;28;20202;-90
2022/01/26 11:51:44;;;;;;;23.33;13.10;;;;;;;;;;5017421;28;20235;-89
2022/01/26 11:54:14;;;;;;;16.93;8.57;;;;;;;;;;5020485;28;20210;-89
2022/01/26 11:56:54;;;;;;;22.47;11.90;;;;;;;;;;5031397;28;20252;-90
2022/01/26 11:59:32;;;;;;;20.40;14.37;;;;;;;;;;5025703;28;22627;-87
2022/01/26 12:02:05;;;;;;;20.00;12.03;;;;;;;;;;5016611;28;20220;-88
2022/01/26 12:04:37;;;;;;;7.67;6.97;;;;;;;;;;5018153;28;20225;-88
2022/01/26 12:07:13;;;;;;;23.63;14.43;;;;;;;;;;5025806;28;20205;-89
2022/01/26 12:09:42;;;;;;;18.40;12.13;;;;;;;;;;5015333;28;20220;-91
2022/01/26 12:12:17;;;;;;;12.23;6.53;;;;;;;;;;5023201;28;20225;-91
2022/01/26 12:14:56;;;;;;;19.37;11.13;;;;;;;;;;5020990;28;20267;-87
2022/01/26 12:17:28;;;;;;;16.83;12.27;;;;;;;;;;5023136;28;20277;-88
2022/01/26 12:20:11;;;;;;;13.97;9.30;;;;;;;;;;5018497;28;20262;-89
2022/01/26 12:34:30;;;;;;;24.17;14.40;;;;;;;;;;5015802;28;20263;-91
2022/01/26 12:37:09;;;;;;;13.97;8.53;;;;;;;;;;5017314;28;20216;-89
2022/01/26 12:42:56;;;;;;;12.07;8.13;;;;;;;;;;5014532;28;20212;-89
2022/01/26 12:45:50;;;;;;;5.63;3.50;;;;;;;;;;5012828;28;20206;-87
2022/01/26 12:48:22;;;;;;;7.33;5.20;;;;;;;;;;5017666;28;20271;-89
2022/01/26 12:50:53;;;;;;;10.07;5.07;;;;;;;;;;5022923;28;20259;-89
2022/01/26 12:53:25;;;;;;;7.40;5.77;;;;;;;;;;5015863;28;20216;-88
2022/01/26 12:55:57;;;;;;;1.97;1.83;;;;;;;;;;5016729;28;20283;-88
2022/01/26 12:58:34;;;;;;;19.13;10.50;;;;;;;;;;5018663;28;20208;-88
2022/01/26 13:01:09;;;;;;;9.63;8.43;;;;;;;;;;5022798;28;20250;-91
2022/01/26 13:03:43;;;;;;;15.67;7.80;;;;;;;;;;5026454;28;20247;-90
2022/01/26 13:06:18;;;;;;;23.33;15.83;;;;;;;;;;5031785;28;20198;-85
2022/01/26 13:09:02;;;;;;;8.10;4.90;;;;;;;;;;5022880;28;20223;-87
2022/01/26 13:11:32;;;;;;;19.67;6.00;;;;;;;;;;5015807;28;20299;-86
2022/01/26 13:14:15;;;;;;;11.70;7.33;;;;;;;;;;5014914;28;20279;-87
2022/01/26 13:16:58;;;;;;;15.30;8.77;;;;;;;;;;5015385;28;20258;-87
2022/01/26 13:19:39;;;;;;;10.47;7.40;;;;;;;;;;5013780;28;20230;-86
2022/01/26 13:25:34;;;;;;;12.83;7.33;;;;;;;;;;5025145;28;20211;-87
2022/01/26 13:28:16;;;;;;;10.50;7.87;;;;;;;;;;5022049;28;20209;-89
2022/01/26 13:31:15;;;;;;;12.73;6.20;;;;;;;;;;5033306;28;20206;-88
2022/01/26 13:37:01;;;;;;;8.10;6.07;;;;;;;;;;5031907;28;20210;-87
2022/01/26 13:39:46;;;;;;;10.30;7.27;;;;;;;;;;5025125;28;20311;-88
2022/01/26 13:52:19;;;;;;;5.97;5.10;;;;;;;;;;5027549;28;20204;-88
2022/01/26 13:55:14;;;;;;;8.57;5.97;;;;;;;;;;5036901;28;20218;-88
2022/01/26 14:00:56;;;;;;;24.07;8.40;;;;;;;;;;5034333;28;20235;-90
2022/01/26 14:03:28;;;;;;;15.77;9.27;;;;;;;;;;5027760;28;20239;-88
2022/01/26 14:06:01;;;;;;;11.83;7.53;;;;;;;;;;5031922;28;20201;-88
2022/01/26 14:08:49;;;;;;;9.43;7.17;;;;;;;;;;5030853;28;20186;-88
2022/01/26 14:11:18;;;;;;;11.97;5.67;;;;;;;;;;5030471;28;20204;-87
2022/01/26 14:13:48;;;;;;;19.43;11.83;;;;;;;;;;5023835;28;20228;-89
2022/01/26 14:16:19;;;;;;;9.30;6.10;;;;;;;;;;5023720;28;20240;-90
2022/01/26 14:25:02;;;;;;;13.17;7.03;;;;;;;;;;5006786;28;20229;-88
2022/01/26 14:27:39;;;;;;;16.73;8.23;;;;;;;;;;5020864;28;20229;-88
2022/01/26 14:30:18;;;;;;;12.70;8.53;;;;;;;;;;5023571;28;20223;-84
2022/01/26 14:36:07;;;;;;;16.33;9.23;;;;;;;;;;4999275;28;20202;-85
2022/01/26 14:53:44;;;;;;;14.33;9.70;;;;;;;;;;5027468;28;20228;-90
2022/01/26 14:56:15;;;;;;;15.20;8.83;;;;;;;;;;5023169;28;20293;-89
2022/01/26 15:30:13;;;;;;;7.80;5.37;;;;;;;;;;5013836;28;20226;-87
2022/01/26 15:41:46;;;;;;;12.10;6.50;;;;;;;;;;5014842;28;20329;-87
2022/01/26 15:44:38;;;;;;;20.60;10.30;;;;;;;;;;5005301;28;20209;-86
2022/01/26 15:50:24;;;;;;;14.80;8.10;;;;;;;;;;5013244;28;20275;-86
2022/01/26 15:53:04;;;;;;;22.53;9.40;;;;;;;;;;5015461;28;20205;-87
2022/01/26 15:58:25;;;;;;;6.57;4.13;;;;;;;;;;5013442;28;20237;-87
2022/01/26 16:06:42;;;;;;;11.10;4.80;;;;;;;;;;5015235;28;20191;-87
2022/01/26 16:20:47;;;;;;;15.40;7.63;;;;;;;;;;5014596;28;20316;-87
2022/01/26 16:26:34;;;;;;;14.13;6.30;;;;;;;;;;5015248;28;20227;-86
2022/01/26 16:37:47;;;;;;;7.47;3.77;;;;;;;;;;5013843;28;20245;-86
2022/01/26 17:03:11;;;;;;;3.73;2.53;;;;;;;;;;5014924;28;20229;-87
2022/01/26 17:11:31;;;;;;;11.27;7.73;;;;;;;;;;4973614;28;20202;-86
2022/01/26 18:15:53;;;;;;;6.73;4.43;;;;;;;;;;4991235;28;20205;-86
2022/01/26 18:26:49;;;;;;;9.43;5.70;;;;;;;;;;5013644;28;20201;-86
2022/01/26 18:32:16;;;;;;;3.33;2.70;;;;;;;;;;5013770;28;20223;-86
2022/01/26 18:40:44;;;;;;;13.20;8.03;;;;;;;;;;5015010;28;20229;-87
2022/01/26 18:51:34;;;;;;;8.03;5.50;;;;;;;;;;5005251;28;20211;-86
2022/01/26 18:54:03;;;;;;;15.03;6.93;;;;;;;;;;5016926;28;20279;-87
2022/01/26 18:56:32;;;;;;;14.67;7.00;;;;;;;;;;5017065;28;20207;-87
2022/01/26 18:59:00;;;;;;;9.37;6.37;;;;;;;;;;5017072;28;20212;-86
2022/01/26 19:01:29;;;;;;;16.57;7.67;;;;;;;;;;5016630;28;20252;-87
2022/01/26 19:04:23;;;;;;;8.07;5.57;;;;;;;;;;5017033;28;20224;-87
2022/01/26 19:06:53;;;;;;;14.47;7.10;;;;;;;;;;5016911;28;20241;-86
2022/01/26 19:09:25;;;;;;;12.03;6.43;;;;;;;;;;5016634;28;20202;-86
2022/01/26 19:11:54;;;;;;;6.60;4.97;;;;;;;;;;5016873;28;20194;-86
2022/01/26 19:14:26;;;;;;;10.60;4.00;;;;;;;;;;5017028;28;20201;-86
2022/01/26 19:17:00;;;;;;;8.27;5.03;;;;;;;;;;5016400;28;20240;-86
2022/01/26 19:19:35;;;;;;;13.13;4.50;;;;;;;;;;5017114;28;20320;-86
2022/01/26 19:22:28;;;;;;;7.03;3.50;;;;;;;;;;5015916;28;20237;-87
2022/01/26 19:25:02;;;;;;;10.60;3.97;;;;;;;;;;5000166;28;20201;-87
2022/01/26 19:27:36;;;;;;;5.50;3.33;;;;;;;;;;5014900;28;20227;-86
2022/01/26 19:33:07;;;;;;;4.10;3.33;;;;;;;;;;5015828;28;20205;-87
2022/01/26 19:42:14;;;;;;;9.13;4.77;;;;;;;;;;5016063;28;20267;-87
2022/01/26 19:44:22;;;;;;;4.97;3.17;;;;;;;;;;5012310;28;20212;-87
2022/01/26 19:47:13;;;;;;;5.40;3.37;;;;;;;;;;5015327;28;20251;-87
2022/01/26 19:52:27;;;;;;;5.00;2.03;;;;;;;;;;5008642;28;20195;-87
2022/01/26 19:54:56;;;;;;;14.17;4.33;;;;;;;;;;5015565;28;20299;-87
2022/01/26 19:57:26;;;;;;;4.00;2.57;;;;;;;;;;5015707;28;20241;-87
2022/01/26 19:59:54;;;;;;;5.07;2.70;;;;;;;;;;5015722;28;20243;-87
2022/01/26 20:02:22;;;;;;;14.33;4.77;;;;;;;;;;5015650;28;20252;-88
2022/01/26 20:04:51;;;;;;;5.57;3.40;;;;;;;;;;5015837;28;20244;-87
2022/01/26 20:07:25;;;;;;;4.50;3.17;;;;;;;;;;5015686;28;20213;-87
2022/01/26 20:09:57;;;;;;;2.73;2.40;;;;;;;;;;5015777;28;20242;-87
2022/01/26 20:12:36;;;;;;;12.10;3.40;;;;;;;;;;5015486;28;20194;-87
2022/01/26 20:15:05;;;;;;;4.17;2.63;;;;;;;;;;5015494;28;20251;-87
2022/01/26 20:17:33;;;;;;;9.13;3.17;;;;;;;;;;5014914;28;20259;-87
2022/01/26 20:20:04;;;;;;;13.47;4.07;;;;;;;;;;5014500;28;20216;-87
2022/01/26 20:22:32;;;;;;;5.87;2.70;;;;;;;;;;5012113;28;20251;-87
2022/01/26 20:25:01;;;;;;;4.67;2.57;;;;;;;;;;5014752;28;20219;-87
2022/01/26 20:27:31;;;;;;;7.93;3.37;;;;;;;;;;5015500;28;20233;-87
2022/01/26 20:30:03;;;;;;;2.73;2.13;;;;;;;;;;5015121;28;20235;-87
2022/01/26 20:32:32;;;;;;;8.87;3.57;;;;;;;;;;5014358;28;20227;-87